Time,TemperatureF,DewpointF,PressureIn,WindDirection,WindDirectionDegrees,WindSpeedMPH,WindSpeedGustMPH,Humidity,HourlyPrecipIn,Conditions,Clouds,dailyrainin,SoftwareType,DateUTC
2013-02-12 08:10:00,38.8,35.0,29.76,West,262,10.0,12.0,86,0.00,,,0.00,Wunderground v.1.15,2013-02-12 13:10:00,
2013-02-12 08:15:00,38.7,34.9,29.77,West,259,9.0,12.0,86,0.00,,,0.00,Wunderground v.1.15,2013-02-12 13:15:00,
2013-02-12 08:20:00,38.6,34.8,29.77,West,263,8.0,8.0,86,0.00,,,0.00,Wunderground v.1.15,2013-02-12 13:20:00,
2013-02-12 08:25:00,40.0,35.9,29.77,NW,311,7.0,8.0,85,0.00,,,0.00,Wunderground v.1.15,2013-02-12 13:25:00,
2013-02-12 09:55:00,42.7,32.1,29.78,SW,221,9.0,9.0,66,0.00,,,0.00,Wunderground v.1.15,2013-02-12 14:55:00,
2013-02-12 10:00:00,42.7,32.5,29.78,WSW,253,8.0,8.0,67,0.00,,,0.00,Wunderground v.1.15,2013-02-12 15:00:00,
2013-02-12 10:05:00,42.8,34.0,29.78,WSW,243,7.0,11.0,71,0.00,,,0.00,Wunderground v.1.15,2013-02-12 15:05:00,
2013-02-12 10:10:00,42.3,34.3,29.78,West,260,8.0,8.0,73,0.00,,,0.00,Wunderground v.1.15,2013-02-12 15:10:00,
2013-02-12 10:15:00,42.3,34.6,29.78,SW,236,10.0,12.0,74,0.00,,,0.00,Wunderground v.1.15,2013-02-12 15:15:00,
2013-02-12 10:20:00,42.2,34.5,29.78,WSW,245,10.0,13.0,74,0.00,,,0.00,Wunderground v.1.15,2013-02-12 15:20:00,
2013-02-12 10:25:00,42.1,34.4,29.78,WSW,238,12.0,13.0,74,0.00,,,0.00,Wunderground v.1.15,2013-02-12 15:25:00,
2013-02-12 10:30:00,42.2,34.5,29.78,WSW,243,12.0,12.0,74,0.00,,,0.00,Wunderground v.1.15,2013-02-12 15:30:00,
2013-02-12 10:35:00,42.3,34.6,29.78,West,274,11.0,12.0,74,0.00,,,0.00,Wunderground v.1.15,2013-02-12 15:35:00,
2013-02-12 10:40:00,42.3,34.9,29.78,NNW,345,10.0,10.0,75,0.00,,,0.00,Wunderground v.1.15,2013-02-12 15:40:00,
2013-02-12 10:45:00,42.1,34.7,29.78,WSW,240,10.0,15.0,75,0.00,,,0.00,Wunderground v.1.15,2013-02-12 15:45:00,
2013-02-12 10:50:00,41.8,34.8,29.78,WSW,252,11.0,13.0,76,0.00,,,0.00,Wunderground v.1.15,2013-02-12 15:50:00,
2013-02-12 10:55:00,41.5,34.5,29.78,SW,232,12.0,13.0,76,0.00,,,0.00,Wunderground v.1.15,2013-02-12 15:55:00,
2013-02-12 11:00:00,41.3,34.6,29.78,WSW,255,12.0,14.0,77,0.00,,,0.00,Wunderground v.1.15,2013-02-12 16:00:00,
2013-02-12 11:05:00,41.2,34.5,29.79,WSW,240,13.0,14.0,77,0.00,,,0.00,Wunderground v.1.15,2013-02-12 16:05:00,
2013-02-12 11:15:00,41.3,35.0,29.79,West,274,12.0,15.0,78,0.00,,,0.00,Wunderground v.1.15,2013-02-12 16:15:00,
2013-02-12 11:25:00,41.1,34.8,29.78,WSW,257,12.0,16.0,78,0.00,,,0.00,Wunderground v.1.15,2013-02-12 16:25:00,
2013-02-12 11:30:00,40.9,34.9,29.79,WSW,257,12.0,12.0,79,0.00,,,0.00,Wunderground v.1.15,2013-02-12 16:30:00,
2013-02-12 11:35:00,40.8,35.1,29.78,SSW,205,12.0,14.0,80,0.00,,,0.00,Wunderground v.1.15,2013-02-12 16:35:00,
2013-02-12 11:40:00,41.1,35.4,29.78,WSW,249,13.0,16.0,80,0.00,,,0.00,Wunderground v.1.15,2013-02-12 16:40:00,
2013-02-12 11:45:00,41.1,35.1,29.78,WNW,291,12.0,16.0,79,0.00,,,0.00,Wunderground v.1.15,2013-02-12 16:45:00,
2013-02-12 11:50:00,41.5,35.5,29.78,West,259,13.0,13.0,79,0.00,,,0.00,Wunderground v.1.15,2013-02-12 16:50:00,
2013-02-12 12:00:00,41.9,35.9,29.78,WSW,256,12.0,12.0,79,0.00,,,0.00,Wunderground v.1.15,2013-02-12 17:00:00,
2013-02-12 12:05:00,42.0,36.0,29.78,WSW,249,12.0,12.0,79,0.00,,,0.00,Wunderground v.1.15,2013-02-12 17:05:00,
2013-02-12 12:10:00,42.0,36.0,29.78,WSW,250,11.0,13.0,79,0.00,,,0.00,Wunderground v.1.15,2013-02-12 17:10:00,
2013-02-12 12:15:00,41.7,36.0,29.79,SW,221,10.0,13.0,80,0.00,,,0.00,Wunderground v.1.15,2013-02-12 17:15:00,
2013-02-12 12:20:00,41.8,36.4,29.79,SW,215,8.0,9.0,81,0.00,,,0.00,Wunderground v.1.15,2013-02-12 17:20:00,
2013-02-12 12:25:00,41.8,36.1,29.79,SW,214,8.0,17.0,80,0.00,,,0.00,Wunderground v.1.15,2013-02-12 17:25:00,
2013-02-12 12:30:00,42.0,36.3,29.79,WSW,249,9.0,9.0,80,0.00,,,0.00,Wunderground v.1.15,2013-02-12 17:30:00,
2013-02-12 12:35:00,42.1,35.7,29.78,SW,236,10.0,13.0,78,0.00,,,0.00,Wunderground v.1.15,2013-02-12 17:35:00,
2013-02-12 12:40:00,42.0,35.6,29.78,WSW,256,9.0,12.0,78,0.00,,,0.00,Wunderground v.1.15,2013-02-12 17:40:00,
2013-02-12 12:45:00,41.9,35.9,29.79,WSW,253,8.0,12.0,79,0.00,,,0.00,Wunderground v.1.15,2013-02-12 17:45:00,
2013-02-12 12:50:00,42.3,35.9,29.78,SW,221,7.0,10.0,78,0.00,,,0.00,Wunderground v.1.15,2013-02-12 17:50:00,
2013-02-12 12:55:00,43.1,34.3,29.79,West,263,6.0,10.0,71,0.00,,,0.00,Wunderground v.1.15,2013-02-12 17:55:00,
2013-02-12 13:00:00,44.3,32.1,29.79,West,267,6.0,11.0,62,0.00,,,0.00,Wunderground v.1.15,2013-02-12 18:00:00,
2013-02-12 13:05:00,44.8,31.8,29.79,West,262,5.0,11.0,60,0.00,,,0.00,Wunderground v.1.15,2013-02-12 18:05:00,
2013-02-12 13:15:00,44.7,31.2,29.79,WSW,253,6.0,8.0,59,0.00,,,0.00,Wunderground v.1.15,2013-02-12 18:15:00,
2013-02-12 13:20:00,44.7,31.2,29.79,West,274,7.0,11.0,59,0.00,,,0.00,Wunderground v.1.15,2013-02-12 18:20:00,
2013-02-12 13:30:00,44.8,30.9,29.80,SSW,208,7.0,7.0,58,0.00,,,0.00,Wunderground v.1.15,2013-02-12 18:30:00,
2013-02-12 13:35:00,45.3,31.4,29.80,West,277,6.0,7.0,58,0.00,,,0.00,Wunderground v.1.15,2013-02-12 18:35:00,
2013-02-12 13:40:00,45.5,31.6,29.80,WNW,286,5.0,8.0,58,0.00,,,0.00,Wunderground v.1.15,2013-02-12 18:40:00,
2013-02-12 13:45:00,45.2,32.1,29.80,West,264,7.0,11.0,60,0.00,,,0.00,Wunderground v.1.15,2013-02-12 18:45:00,
2013-02-12 13:50:00,43.1,35.4,29.80,West,269,10.0,11.0,74,0.00,,,0.00,Wunderground v.1.15,2013-02-12 18:50:00,
2013-02-12 13:55:00,42.2,35.2,29.80,WSW,252,10.0,11.0,76,0.00,,,0.00,Wunderground v.1.15,2013-02-12 18:55:00,
2013-02-12 14:00:00,42.2,34.8,29.80,West,260,10.0,10.0,75,0.00,,,0.00,Wunderground v.1.15,2013-02-12 19:00:00,
2013-02-12 14:05:00,42.6,34.9,29.80,NNE,18,10.0,10.0,74,0.00,,,0.00,Wunderground v.1.15,2013-02-12 19:05:00,
2013-02-12 14:10:00,42.8,34.7,29.80,WSW,250,8.0,8.0,73,0.00,,,0.00,Wunderground v.1.15,2013-02-12 19:10:00,
2013-02-12 14:15:00,43.0,34.6,29.80,West,259,7.0,10.0,72,0.00,,,0.00,Wunderground v.1.15,2013-02-12 19:15:00,
2013-02-12 14:20:00,43.3,34.2,29.81,SW,229,8.0,8.0,70,0.00,,,0.00,Wunderground v.1.15,2013-02-12 19:20:00,
2013-02-12 14:25:00,43.6,33.7,29.81,WSW,238,7.0,8.0,68,0.00,,,0.00,Wunderground v.1.15,2013-02-12 19:25:00,
2013-02-12 14:30:00,43.4,34.3,29.81,SW,219,7.0,7.0,70,0.00,,,0.00,Wunderground v.1.15,2013-02-12 19:30:00,
2013-02-12 14:40:00,42.0,36.0,29.81,WSW,240,9.0,9.0,79,0.00,,,0.00,Wunderground v.1.15,2013-02-12 19:40:00,
2013-02-12 14:45:00,42.2,35.8,29.81,WNW,285,10.0,10.0,78,0.00,,,0.00,Wunderground v.1.15,2013-02-12 19:45:00,
2013-02-12 14:55:00,43.3,35.2,29.81,WSW,238,6.0,8.0,73,0.00,,,0.00,Wunderground v.1.15,2013-02-12 19:55:00,
2013-02-12 15:00:00,43.8,35.7,29.80,WSW,240,5.0,5.0,73,0.00,,,0.00,Wunderground v.1.15,2013-02-12 20:00:00,
2013-02-12 15:05:00,43.0,36.0,29.81,SW,221,6.0,13.0,76,0.00,,,0.00,Wunderground v.1.15,2013-02-12 20:05:00,
2013-02-12 15:10:00,42.1,36.1,29.81,WSW,246,8.0,10.0,79,0.00,,,0.00,Wunderground v.1.15,2013-02-12 20:10:00,
2013-02-12 15:15:00,41.9,35.5,29.81,SW,222,9.0,11.0,78,0.00,,,0.00,Wunderground v.1.15,2013-02-12 20:15:00,
2013-02-12 15:20:00,42.4,35.4,29.80,WSW,245,8.0,8.0,76,0.00,,,0.00,Wunderground v.1.15,2013-02-12 20:20:00,
2013-02-12 15:25:00,43.0,35.3,29.80,WSW,243,6.0,8.0,74,0.00,,,0.00,Wunderground v.1.15,2013-02-12 20:25:00,
2013-02-12 15:30:00,43.9,34.4,29.80,West,280,5.0,5.0,69,0.00,,,0.00,Wunderground v.1.15,2013-02-12 20:30:00,
2013-02-12 15:35:00,44.7,33.6,29.80,West,269,5.0,5.0,65,0.00,,,0.00,Wunderground v.1.15,2013-02-12 20:35:00,
2013-02-12 15:40:00,45.4,31.0,29.80,WSW,253,6.0,7.0,57,0.00,,,0.00,Wunderground v.1.15,2013-02-12 20:40:00,
2013-02-12 15:45:00,45.7,30.4,29.80,SW,231,7.0,7.0,55,0.00,,,0.00,Wunderground v.1.15,2013-02-12 20:45:00,
2013-02-12 15:50:00,45.9,31.1,29.79,NNW,342,6.0,8.0,56,0.00,,,0.00,Wunderground v.1.15,2013-02-12 20:50:00,
2013-02-12 16:00:00,46.1,30.8,29.80,NW,307,4.0,8.0,55,0.00,,,0.00,Wunderground v.1.15,2013-02-12 21:00:00,
2013-02-12 16:05:00,46.0,30.7,29.79,WNW,297,5.0,8.0,55,0.00,,,0.00,Wunderground v.1.15,2013-02-12 21:05:00,
2013-02-12 16:10:00,46.1,30.8,29.80,WSW,240,5.0,5.0,55,0.00,,,0.00,Wunderground v.1.15,2013-02-12 21:10:00,
2013-02-12 16:15:00,45.9,30.6,29.79,NW,307,5.0,5.0,55,0.00,,,0.00,Wunderground v.1.15,2013-02-12 21:15:00,
2013-02-12 16:20:00,45.7,30.4,29.79,West,264,8.0,9.0,55,0.00,,,0.00,Wunderground v.1.15,2013-02-12 21:20:00,
2013-02-12 16:25:00,45.5,30.3,29.78,WNW,283,8.0,9.0,55,0.00,,,0.00,Wunderground v.1.15,2013-02-12 21:25:00,
2013-02-12 16:30:00,45.4,30.6,29.78,WNW,294,7.0,7.0,56,0.00,,,0.00,Wunderground v.1.15,2013-02-12 21:30:00,
2013-02-12 16:35:00,45.3,30.1,29.78,West,280,5.0,7.0,55,0.00,,,0.00,Wunderground v.1.15,2013-02-12 21:35:00,
2013-02-12 16:45:00,45.1,30.3,29.79,West,267,6.0,6.0,56,0.00,,,0.00,Wunderground v.1.15,2013-02-12 21:45:00,
2013-02-12 16:50:00,44.9,30.6,29.79,West,260,5.0,5.0,57,0.00,,,0.00,Wunderground v.1.15,2013-02-12 21:50:00,
2013-02-12 17:00:00,44.0,30.2,29.80,WNW,297,6.0,10.0,58,0.00,,,0.00,Wunderground v.1.15,2013-02-12 22:00:00,
2013-02-12 17:05:00,43.6,29.8,29.80,NW,326,7.0,10.0,58,0.00,,,0.00,Wunderground v.1.15,2013-02-12 22:05:00,
2013-02-12 17:15:00,43.1,29.7,29.78,North,355,5.0,8.0,59,0.00,,,0.00,Wunderground v.1.15,2013-02-12 22:15:00,
2013-02-12 17:20:00,42.8,29.9,29.78,West,259,6.0,6.0,60,0.00,,,0.00,Wunderground v.1.15,2013-02-12 22:20:00,
2013-02-12 17:30:00,42.4,29.9,29.79,NNW,336,4.0,4.0,61,0.00,,,0.00,Wunderground v.1.15,2013-02-12 22:30:00,
2013-02-12 17:35:00,42.2,29.7,29.79,NW,308,3.0,4.0,61,0.00,,,0.00,Wunderground v.1.15,2013-02-12 22:35:00,
2013-02-12 17:40:00,42.1,29.6,29.80,NW,304,3.0,3.0,61,0.00,,,0.00,Wunderground v.1.15,2013-02-12 22:40:00,
2013-02-12 17:45:00,42.0,29.9,29.81,WNW,293,4.0,4.0,62,0.00,,,0.00,Wunderground v.1.15,2013-02-12 22:45:00,
2013-02-12 17:50:00,41.8,29.7,29.81,WNW,297,4.0,6.0,62,0.00,,,0.00,Wunderground v.1.15,2013-02-12 22:50:00,
2013-02-12 17:55:00,41.7,29.6,29.82,WNW,283,5.0,6.0,62,0.00,,,0.00,Wunderground v.1.15,2013-02-12 22:55:00,
2013-02-12 18:00:00,41.6,29.9,29.82,West,276,5.0,6.0,63,0.00,,,0.00,Wunderground v.1.15,2013-02-12 23:00:00,
2013-02-12 18:05:00,41.5,29.8,29.83,West,281,5.0,6.0,63,0.00,,,0.00,Wunderground v.1.15,2013-02-12 23:05:00,
2013-02-12 18:10:00,41.4,29.7,29.83,West,276,5.0,6.0,63,0.00,,,0.00,Wunderground v.1.15,2013-02-12 23:10:00,
2013-02-12 18:15:00,41.4,29.7,29.83,West,260,5.0,6.0,63,0.00,,,0.00,Wunderground v.1.15,2013-02-12 23:15:00,
2013-02-12 18:20:00,41.3,29.6,29.84,West,276,5.0,9.0,63,0.00,,,0.00,Wunderground v.1.15,2013-02-12 23:20:00,
2013-02-12 18:30:00,41.0,29.7,29.84,West,273,4.0,4.0,64,0.00,,,0.00,Wunderground v.1.15,2013-02-12 23:30:00,
2013-02-12 18:35:00,40.7,29.8,29.85,SW,235,4.0,4.0,65,0.00,,,0.00,Wunderground v.1.15,2013-02-12 23:35:00,
2013-02-12 18:40:00,40.5,30.0,29.86,West,269,3.0,3.0,66,0.00,,,0.00,Wunderground v.1.15,2013-02-12 23:40:00,
2013-02-12 18:50:00,40.4,30.3,29.88,WSW,245,4.0,4.0,67,0.00,,,0.00,Wunderground v.1.15,2013-02-12 23:50:00,
2013-02-12 18:55:00,40.4,30.3,29.90,West,264,5.0,10.0,67,0.00,,,0.00,Wunderground v.1.15,2013-02-12 23:55:00,
2013-02-12 19:00:00,40.8,30.7,29.92,SW,221,7.0,8.0,67,0.00,,,0.00,Wunderground v.1.15,2013-02-13 00:00:00,
2013-02-12 19:05:00,41.0,31.2,29.92,SSW,212,9.0,12.0,68,0.00,,,0.00,Wunderground v.1.15,2013-02-13 00:05:00,
2013-02-12 19:10:00,41.2,31.1,29.92,WSW,257,9.0,9.0,67,0.00,,,0.00,Wunderground v.1.15,2013-02-13 00:10:00,
2013-02-12 19:15:00,41.2,31.1,29.92,East,99,10.0,10.0,67,0.00,,,0.00,Wunderground v.1.15,2013-02-13 00:15:00,
2013-02-12 19:25:00,41.0,31.2,29.92,West,270,8.0,11.0,68,0.00,,,0.00,Wunderground v.1.15,2013-02-13 00:25:00,
2013-02-12 19:30:00,41.0,30.9,29.92,WNW,285,10.0,10.0,67,0.00,,,0.00,Wunderground v.1.15,2013-02-13 00:30:00,
2013-02-12 19:35:00,41.0,30.5,29.92,WSW,245,9.0,10.0,66,0.00,,,0.00,Wunderground v.1.15,2013-02-13 00:35:00,
2013-02-12 19:40:00,40.9,30.4,29.92,NNW,328,8.0,8.0,66,0.00,,,0.00,Wunderground v.1.15,2013-02-13 00:40:00,
2013-02-12 19:45:00,40.8,29.9,29.91,West,280,7.0,8.0,65,0.00,,,0.00,Wunderground v.1.15,2013-02-13 00:45:00,
2013-02-12 19:50:00,40.7,30.2,29.91,WSW,240,6.0,6.0,66,0.00,,,0.00,Wunderground v.1.15,2013-02-13 00:50:00,
2013-02-12 19:55:00,40.6,30.1,29.90,WSW,240,5.0,6.0,66,0.00,,,0.00,Wunderground v.1.15,2013-02-13 00:55:00,
2013-02-12 20:00:00,40.6,30.1,29.90,NW,305,5.0,5.0,66,0.00,,,0.00,Wunderground v.1.15,2013-02-13 01:00:00,
2013-02-12 20:05:00,40.5,30.0,29.90,WNW,283,5.0,5.0,66,0.00,,,0.00,Wunderground v.1.15,2013-02-13 01:05:00,
2013-02-12 20:10:00,40.4,29.9,29.91,West,263,5.0,6.0,66,0.00,,,0.00,Wunderground v.1.15,2013-02-13 01:10:00,
2013-02-12 20:15:00,40.3,29.8,29.92,West,274,5.0,6.0,66,0.00,,,0.00,Wunderground v.1.15,2013-02-13 01:15:00,
2013-02-12 20:20:00,40.3,29.8,29.91,WSW,256,5.0,5.0,66,0.00,,,0.00,Wunderground v.1.15,2013-02-13 01:20:00,
2013-02-12 20:30:00,40.2,30.1,29.92,SW,226,6.0,6.0,67,0.00,,,0.00,Wunderground v.1.15,2013-02-13 01:30:00,
2013-02-12 20:35:00,40.1,29.6,29.92,West,277,6.0,8.0,66,0.00,,,0.00,Wunderground v.1.15,2013-02-13 01:35:00,
2013-02-12 20:45:00,40.1,30.0,29.91,West,263,7.0,7.0,67,0.00,,,0.00,Wunderground v.1.15,2013-02-13 01:45:00,
2013-02-12 20:50:00,39.9,29.8,29.91,West,277,6.0,6.0,67,0.00,,,0.00,Wunderground v.1.15,2013-02-13 01:50:00,
2013-02-12 20:55:00,39.8,29.7,29.91,West,269,6.0,6.0,67,0.00,,,0.00,Wunderground v.1.15,2013-02-13 01:55:00,
2013-02-12 21:05:00,39.5,29.4,29.91,WSW,240,6.0,6.0,67,0.00,,,0.00,Wunderground v.1.15,2013-02-13 02:05:00,
2013-02-12 21:15:00,39.2,29.2,29.89,WNW,291,5.0,6.0,67,0.00,,,0.00,Wunderground v.1.15,2013-02-13 02:15:00,
2013-02-12 21:20:00,39.1,29.1,29.89,WNW,297,5.0,5.0,67,0.00,,,0.00,Wunderground v.1.15,2013-02-13 02:20:00,
2013-02-12 21:30:00,38.8,29.1,29.89,West,271,4.0,4.0,68,0.00,,,0.00,Wunderground v.1.15,2013-02-13 02:30:00,
2013-02-12 21:35:00,38.7,29.0,29.89,West,269,3.0,4.0,68,0.00,,,0.00,Wunderground v.1.15,2013-02-13 02:35:00,
2013-02-12 21:40:00,38.6,28.9,29.89,WNW,291,4.0,4.0,68,0.00,,,0.00,Wunderground v.1.15,2013-02-13 02:40:00,
2013-02-12 21:45:00,38.5,28.9,29.88,NNW,327,3.0,4.0,68,0.00,,,0.00,Wunderground v.1.15,2013-02-13 02:45:00,
2013-02-12 21:50:00,38.3,29.0,29.88,WNW,300,3.0,3.0,69,0.00,,,0.00,Wunderground v.1.15,2013-02-13 02:50:00,
2013-02-12 21:55:00,38.2,28.9,29.88,WNW,300,3.0,3.0,69,0.00,,,0.00,Wunderground v.1.15,2013-02-13 02:55:00,
2013-02-12 22:00:00,38.0,28.7,29.88,WSW,258,3.0,3.0,69,0.00,,,0.00,Wunderground v.1.15,2013-02-13 03:00:00,
2013-02-12 22:05:00,37.9,28.6,29.87,NW,304,2.0,3.0,69,0.00,,,0.00,Wunderground v.1.15,2013-02-13 03:05:00,
2013-02-12 22:10:00,37.7,28.4,29.87,West,280,2.0,2.0,69,0.00,,,0.00,Wunderground v.1.15,2013-02-13 03:10:00,
2013-02-12 22:15:00,37.5,28.6,29.87,WNW,303,1.0,2.0,70,0.00,,,0.00,Wunderground v.1.15,2013-02-13 03:15:00,
2013-02-12 22:20:00,37.4,28.5,29.87,West,280,1.0,1.0,70,0.00,,,0.00,Wunderground v.1.15,2013-02-13 03:20:00,
2013-02-12 22:30:00,37.2,28.3,29.86,West,271,2.0,3.0,70,0.00,,,0.00,Wunderground v.1.15,2013-02-13 03:30:00,
2013-02-12 22:40:00,36.9,28.4,29.86,West,270,1.0,2.0,71,0.00,,,0.00,Wunderground v.1.15,2013-02-13 03:40:00,
2013-02-12 22:45:00,36.7,28.2,29.87,WNW,297,2.0,3.0,71,0.00,,,0.00,Wunderground v.1.15,2013-02-13 03:45:00,
2013-02-12 22:50:00,36.6,28.4,29.87,WNW,288,3.0,3.0,72,0.00,,,0.00,Wunderground v.1.15,2013-02-13 03:50:00,
2013-02-12 22:55:00,36.4,28.2,29.87,WNW,291,2.0,3.0,72,0.00,,,0.00,Wunderground v.1.15,2013-02-13 03:55:00,
2013-02-12 23:00:00,36.3,28.5,29.87,WSW,257,2.0,2.0,73,0.00,,,0.00,Wunderground v.1.15,2013-02-13 04:00:00,
2013-02-12 23:05:00,36.2,28.4,29.87,WSW,256,2.0,3.0,73,0.00,,,0.00,Wunderground v.1.15,2013-02-13 04:05:00,
2013-02-12 23:10:00,36.1,28.3,29.86,West,274,2.0,2.0,73,0.00,,,0.00,Wunderground v.1.15,2013-02-13 04:10:00,
2013-02-12 23:15:00,36.0,28.2,29.86,West,267,2.0,2.0,73,0.00,,,0.00,Wunderground v.1.15,2013-02-13 04:15:00,
2013-02-12 23:20:00,35.9,28.1,29.86,West,274,1.0,1.0,73,0.00,,,0.00,Wunderground v.1.15,2013-02-13 04:20:00,
2013-02-12 23:25:00,35.7,28.2,29.87,West,279,1.0,3.0,74,0.00,,,0.00,Wunderground v.1.15,2013-02-13 04:25:00,
2013-02-12 23:30:00,35.5,28.0,29.87,SSW,204,1.0,1.0,74,0.00,,,0.00,Wunderground v.1.15,2013-02-13 04:30:00,
2013-02-12 23:35:00,35.2,28.1,29.88,SW,231,1.0,3.0,75,0.00,,,0.00,Wunderground v.1.15,2013-02-13 04:35:00,
2013-02-12 23:40:00,35.0,28.2,29.88,West,264,2.0,2.0,76,0.00,,,0.00,Wunderground v.1.15,2013-02-13 04:40:00,
2013-02-12 23:45:00,35.1,28.0,29.88,WSW,258,2.0,2.0,75,0.00,,,0.00,Wunderground v.1.15,2013-02-13 04:45:00,
2013-02-12 23:50:00,35.2,28.1,29.88,WNW,287,2.0,3.0,75,0.00,,,0.00,Wunderground v.1.15,2013-02-13 04:50:00,
2013-02-12 23:55:00,35.1,28.0,29.88,West,260,3.0,3.0,75,0.00,,,0.00,Wunderground v.1.15,2013-02-13 04:55:00,